Impacts METAR Board
IDs:

KGWO - Greenwood/Leflore Ar, MS, US

Updated at: 1000 UTC 16 Aug 2018
Potential Impact None Slight Moderate High
Time 15/22Z 15/23Z 16/00Z 16/01Z 16/02Z 16/03Z 16/04Z 16/05Z 16/06Z 16/07Z 16/08Z 16/09Z 16/10Z
Temp95 93 91 81 80 80 79 80 79 81 80 78 77
Dewpt71 72 73 76 76 73 71 70 71 71 72 72 72
Altim29.98 29.96 29.96 29.96 29.97 29.99 30.00 30.01 30.00 29.99 29.99 30.00 30.02
VIS10 10 10 10 10 10 10 10 10 10 10 10 10
CIG60 -- -- -- -- -- -- -- -- -- -- -- --
CoverBKNCLRCLRCLRCLRCLRCLRCLRCLRCLRCLRCLRCLR
FltCatVFRVFRVFRVFRVFRVFRVFRVFRVFRVFRVFRVFRVFR
WX--------------------------
WDir1902101400001801900190200180180
WSpd4 3 4 0 0 0 3 3 0 6 5 4 5
WGst-- -- -- -- -- -- -- -- -- -- -- -- --
Raw hourly METARs
KGWO 152153Z AUTO 19004KT 10SM BKN060 BKN070 35/22 A2998 RMK AO2 SLP147 T03500217
KGWO 152253Z AUTO 21003KT 10SM CLR 34/22 A2996 RMK AO2 SLP144 T03390222
KGWO 152353Z AUTO 14004KT 10SM CLR 33/23 A2996 RMK AO2 SLP141 T03280228 10356 20322 56012
KGWO 160053Z AUTO 00000KT 10SM CLR 27/24 A2996 RMK AO2 SLP144 T02720244
KGWO 160153Z AUTO 00000KT 10SM CLR 27/24 A2997 RMK AO2 SLP148 T02670244
KGWO 160253Z AUTO 00000KT 10SM CLR 27/23 A2999 RMK AO2 SLP153 T02670228 53012
KGWO 160353Z AUTO 18003KT 10SM CLR 26/22 A3000 RMK AO2 SLP156 T02610217
KGWO 160453Z AUTO 19003KT 10SM CLR 27/21 A3001 RMK AO2 SLP158 T02670211
KGWO 160553Z AUTO 00000KT 10SM CLR 26/22 A3000 RMK AO2 SLP156 T02610217 10328 20256 403560222 50003
KGWO 160653Z AUTO 19006KT 10SM CLR 27/22 A2999 RMK AO2 SLP152 T02720217
KGWO 160753Z AUTO 20005KT 10SM CLR 27/22 A2999 RMK AO2 SLP152 T02670222
KGWO 160853Z AUTO 18004KT 10SM CLR 26/22 A3000 RMK AO2 SLP156 T02560222 55000
KGWO 160953Z AUTO 18005KT 10SM CLR 25/22 A3002 RMK AO2 SLP163 T02500222



Page loaded:  10:27 UTC  |   03:27 AM Pacific  |   04:27 AM Mountain  |   05:27 AM Central  |   06:27 AM Eastern

 

ADVISORIES

FORECASTS

FORECASTS

OBSERVATIONS

USER TOOLS

ABOUT US